METAR Data
IDs: Format: Raw Decoded Include TAF

Data at: 1956 UTC 17 Nov 2019

KCWF 171845Z VRB04KT 10SM SKC 16/01 A3005
KCWF 171747Z 00000KT 10SM SKC 16/00 A3008
KCWF 171655Z 00000KT 10SM SKC 13/01 A3011
KCWF 171548Z 10006KT 10SM SKC 11/03 A3012
KCWF 171448Z 00000KT 10SM SKC 08/03 A3012
KCWF 171351Z 00000KT 10SM SKC 04/02 A3012
KCWF 171246Z 00000KT 10SM SKC 02/01 A3011
KCWF 171200Z 00000KT 10SM SKC 02/01 A3010
KCWF 171135Z 00000KT 10SM CLR 03/01 A3010 RMK AO2 T00260013 PWINO
KCWF 171115Z 00000KT 10SM CLR 03/02 A3010 RMK AO2 T00310016 PWINO
KCWF 171055Z 31005KT 10SM CLR 03/01 A3011 RMK AO2 T00290013 PWINO
KCWF 171035Z 32003KT 10SM CLR 04/02 A3009 RMK AO2 T00360016 PWINO
KCWF 171015Z 00000KT 10SM CLR 04/02 A3009 RMK AO2 T00440017 PWINO
KCWF 170955Z 00000KT 10SM CLR 04/02 A3008 RMK AO2 T00400017 PWINO
KCWF 170935Z 00000KT 10SM CLR 03/02 A3009 RMK AO2 T00320018 PWINO
KCWF 170915Z 00000KT 10SM CLR 03/02 A3009 RMK AO2 T00310020 PWINO
KCWF 170855Z 00000KT 10SM CLR 04/02 A3009 RMK AO2 T00420020 PWINO
KCWF 170835Z 00000KT 10SM CLR 04/02 A3010 RMK AO2 T00430021 PWINO
KCWF 170815Z 00000KT 10SM CLR 03/02 A3009 RMK AO2 T00340025 PWINO
KCWF 170755Z 00000KT 10SM CLR 03/02 A3009 RMK AO2 T00290021 PWINO
KCWF 170735Z 00000KT 10SM CLR 03/03 A3009 RMK AO2 T00350028 PWINO
KCWF 170715Z 00000KT 10SM CLR 03/03 A3010 RMK AO2 T00340026 PWINO
KCWF 170655Z 02003KT 10SM CLR 04/03 A3011 RMK AO2 T00360029 PWINO
KCWF 170635Z 08003KT 10SM CLR 04/02 A3011 RMK AO2 T00390024 PWINO
KCWF 170615Z 00000KT 10SM CLR 05/03 A3012 RMK AO2 T00490030 PWINO
KCWF 170555Z 00000KT 10SM CLR 05/03 A3012 RMK AO2 T00500033 10108 20045 401620013 PWINO
KCWF 170535Z 00000KT 10SM CLR 05/03 A3012 RMK AO2 T00470031 PWINO
KCWF 170515Z 00000KT 10SM CLR 05/03 A3012 RMK AO2 T00510035 PWINO
KCWF 170455Z 00000KT 10SM CLR 05/04 A3013 RMK AO2 T00520036 PWINO
KCWF 170435Z 34003KT 10SM CLR 05/03 A3014 RMK AO2 T00460032 PWINO
KCWF 170415Z 00000KT 10SM CLR 05/03 A3015 RMK AO2 T00500031 PWINO
KCWF 170350Z 00000KT 10SM SKC 06/04 A3014 RMK LAST
KCWF 170250Z 00000KT 10SM SKC 05/04 A3014
KCWF 170150Z 00000KT 10SM SKC 07/04 A3014
KCWF 170055Z 00000KT 10SM SKC 08/03 A3014
KCWF 162350Z 00000KT 10SM SKC 11/03 A3013
KCWF 162250Z 36003KT 10SM SKC 14/00 A3011
KCWF 162150Z 01004KT 10SM SKC 15/00 A3012
KCWF 162045Z 01005KT 10SM SKC 16/00 A3012
KCWF 161955Z 02004KT 10SM SKC 16/00 A3013 RMK PRESFR
KCWF 161850Z 00000KT 10SM SKC 14/00 A3019
KCWF 161750Z 36006KT 10SM SKC 13/00 A3023
KCWF 161645Z 00000KT 10SM SKC 10/00 A3027
KCWF 161545Z 01006KT 10SM SKC 08/00 A3029
KCWF 161445Z 03005KT 10SM SKC 06/01 A3028
KCWF 161345Z 34004KT 10SM SKC 03/01 A3029
KCWF 161245Z 33005KT 10SM SKC 01/00 A3028
KCWF 161200Z 00000KT 10SM SKC 02/01 A3025
KCWF 161135Z 00000KT 10SM CLR 02/01 A3025 RMK AO2 T00250006 PWINO
KCWF 161115Z 00000KT 10SM CLR 03/01 A3025 RMK AO2 T00270008 PWINO
KCWF 161055Z 00000KT 10SM CLR 03/01 A3025 RMK AO2 T00300008 PWINO
KCWF 161035Z 36003KT 10SM CLR 03/01 A3025 RMK AO2 T00310009 PWINO
KCWF 161015Z 02003KT 10SM CLR 03/01 A3025 RMK AO2 T00320010 PWINO
KCWF 160955Z 02005KT 10SM CLR 03/01 A3025 RMK AO2 T00350011 PWINO
KCWF 160935Z 02005KT 10SM CLR 04/01 A3025 RMK AO2 T00360012 PWINO
KCWF 160915Z 02005KT 10SM CLR 04/01 A3025 RMK AO2 T00380015 PWINO
KCWF 160855Z 02005KT 10SM CLR 04/02 A3025 RMK AO2 T00420017 PWINO
KCWF 160835Z 02006KT 10SM CLR 05/02 A3025 RMK AO2 T00460020 PWINO
KCWF 160815Z 02006KT 10SM CLR 05/02 A3025 RMK AO2 T00470021 PWINO